Hg 306 Tobis — OUPS — position and weather

sailwx.info

Track history (hours):
 
Tides and Currents Weather Stations Pressure Air Temp Water Temp Dewpoint Dewpoint Depression Visibility Wind Speed Wind Dir Waves Ship Positions

Hg 306 Tobis

Last reported at 2014-Jul-24 14:31 UTC. Time now 2014-Jul-25 03:42 UTC.
Position N 57°25' E 005°26'.

Length 40 m; draft 6.5 m.

Type: Fishing. MMSI: 219013001.

Date/timePositionNaut miles runAvg speedWind from/ knotsBaromVisibWave heightAir tempDewpointWater temp
2014-Jul-24 14:31N 57°25' E 005°26'4 0.5
2014-Jul-24 07:23N 57°25' E 005°19'9 2.9
2014-Jul-24 04:17N 57°25' E 005°36'99 4.7
2014-Jul-23 07:03N 57°07' E 008°36'0 0.0
2014-Jul-23 06:33N 57°07' E 008°36'0 0.0
2014-Jul-23 05:33N 57°07' E 008°36'  
2014-Jul-17 17:28N 59°16' E 004°48'1011.1
2014-Jul-17 16:33N 59°08' E 004°58'1111.2
2014-Jul-17 15:33N 58°58' E 005°08'1110.9
2014-Jul-17 14:33N 58°48' E 005°18'2010.1
2014-Jul-17 12:33N 58°31' E 005°39'9 9.2
2014-Jul-17 11:34N 58°24' E 005°51'1010.2
2014-Jul-17 10:34N 58°17' E 006°05'10 9.8
2014-Jul-17 09:34N 58°10' E 006°18'122 7.0
2014-Jul-16 16:03N 57°36' E 009°58'0 0.0
2014-Jul-16 15:33N 57°36' E 009°58'0 0.0
2014-Jul-16 14:33N 57°36' E 009°58'0 0.0
2014-Jul-16 13:33N 57°36' E 009°58'  
Track history (hours):
 
Tides and Currents Weather Stations Pressure Air Temp Water Temp Dewpoint Dewpoint Depression Visibility Wind Speed Wind Dir Waves Ship Positions

Hg 306 Tobis

Last reported at 2014-Jul-24 14:31 UTC. Time now 2014-Jul-25 03:42 UTC.
Position N 57°25' E 005°26'.

Length 40 m; draft 6.5 m.

Type: Fishing. MMSI: 219013001.

Date/timePositionNaut miles runAvg speedWind from/ knotsBaromVisibWave heightAir tempDewpointWater temp
2014-Jul-24 14:31N 57°25' E 005°26'4 0.5
2014-Jul-24 07:23N 57°25' E 005°19'9 2.9
2014-Jul-24 04:17N 57°25' E 005°36'99 4.7
2014-Jul-23 07:03N 57°07' E 008°36'0 0.0
2014-Jul-23 06:33N 57°07' E 008°36'0 0.0
2014-Jul-23 05:33N 57°07' E 008°36'  
2014-Jul-17 17:28N 59°16' E 004°48'1011.1
2014-Jul-17 16:33N 59°08' E 004°58'1111.2
2014-Jul-17 15:33N 58°58' E 005°08'1110.9
2014-Jul-17 14:33N 58°48' E 005°18'2010.1
2014-Jul-17 12:33N 58°31' E 005°39'9 9.2
2014-Jul-17 11:34N 58°24' E 005°51'1010.2
2014-Jul-17 10:34N 58°17' E 006°05'10 9.8
2014-Jul-17 09:34N 58°10' E 006°18'122 7.0
2014-Jul-16 16:03N 57°36' E 009°58'0 0.0
2014-Jul-16 15:33N 57°36' E 009°58'0 0.0
2014-Jul-16 14:33N 57°36' E 009°58'0 0.0
2014-Jul-16 13:33N 57°36' E 009°58'  

Dump ship's entire track history